Date,TemperatureHighF,TemperatureAvgF,TemperatureLowF,DewpointHighF,DewpointAvgF,DewpointLowF,HumidityHigh,HumidityAvg,HumidityLow,PressureMaxIn,PressureMinIn,WindSpeedMaxMPH,WindSpeedAvgMPH,GustSpeedMaxMPH,PrecipitationSumIn
2014-1-1,19.2,14.3,10.9,12.4,8.0,3.5,83,76,71,29.29,29.18,20,10,20,0.00
2014-1-2,21.4,9.4,-4.9,9.6,1.1,-15.3,83,69,54,29.53,29.20,18,8,18,0.00
2014-1-3,23.9,8.9,-9.2,12.3,-1.6,-19.4,71,62,52,29.50,28.88,36,13,36,0.00
2014-1-4,34.5,26.0,20.3,24.7,17.1,12.1,85,69,56,29.12,28.82,30,11,30,0.00
2014-1-5,21.2,9.2,-9.9,18.2,3.7,-16.5,88,78,71,29.32,29.06,38,16,38,0.04
2014-1-6,-0.4,-10.7,-17.5,-7.3,-17.2,-23.8,72,72,72,29.44,29.29,30,12,30,0.00
2014-1-7,12.0,-0.9,-13.4,4.5,-7.7,-20.0,72,72,72,29.38,29.18,14,5,14,0.00
2014-1-8,17.6,7.1,-1.5,6.5,-3.1,-11.7,72,63,54,29.56,29.32,10,3,10,0.00
2014-1-9,27.7,18.3,1.4,25.1,9.7,-10.9,90,69,56,29.56,29.15,13,6,13,0.00
2014-1-10,37.8,33.8,27.7,37.2,32.7,25.1,98,96,90,29.15,28.53,22,9,22,1.04
2014-1-11,42.8,33.8,29.5,37.9,31.6,26.9,98,92,75,28.94,28.53,22,10,22,0.00
2014-1-12,46.2,35.4,23.9,37.2,31.3,23.4,98,86,66,28.94,28.61,30,12,30,0.00
2014-1-13,49.8,35.1,25.3,38.6,29.1,21.0,94,79,57,28.91,28.61,21,7,21,0.00
2014-1-14,37.4,28.5,19.6,32.8,22.2,12.3,93,78,61,29.12,28.67,33,14,33,0.00
2014-1-15,29.5,18.4,9.7,13.8,8.8,3.3,76,66,50,29.24,28.88,22,10,22,0.04
2014-1-16,39.6,27.7,11.3,31.4,20.1,1.8,87,73,61,28.88,28.58,30,12,30,0.00
2014-1-17,19.6,10.2,3.9,7.9,0.7,-4.8,67,65,59,29.09,28.85,22,9,22,0.00
2014-1-18,29.3,17.1,4.1,22.1,10.9,-4.4,85,76,67,29.03,28.61,23,8,23,0.00
2014-1-19,44.4,28.5,7.9,28.8,19.9,3.9,85,71,54,29.03,28.64,21,9,21,0.00
2014-1-20,44.4,31.4,13.3,32.0,24.9,9.1,90,77,60,29.20,28.76,25,8,25,0.00
2014-1-21,19.0,6.8,-2.0,9.1,-3.0,-14.0,83,65,50,29.47,29.18,28,8,28,0.00
2014-1-22,27.9,10.7,-2.6,13.0,-0.8,-10.8,75,60,50,29.41,29.00,29,12,29,0.00
2014-1-23,12.7,-0.9,-8.0,6.0,-6.9,-13.8,75,75,75,29.80,29.41,23,10,23,0.00
2014-1-24,29.3,13.7,-5.1,21.7,1.5,-11.0,75,60,47,29.80,28.61,24,8,24,0.00
2014-1-25,33.6,24.8,7.2,27.8,12.1,-9.8,80,60,42,29.00,28.56,25,10,25,0.00
2014-1-26,45.9,26.8,2.7,29.1,14.7,-6.0,90,61,47,29.12,28.44,50,16,50,0.00
2014-1-27,10.2,0.1,-8.5,0.9,-8.3,-16.7,67,67,67,29.56,29.06,30,14,30,0.00
2014-1-28,20.5,1.5,-13.0,4.5,-11.6,-21.0,67,55,44,29.56,29.29,20,4,20,0.00
2014-1-29,33.3,16.3,-1.7,12.2,-1.5,-17.9,56,45,41,29.32,28.97,20,8,20,0.00
2014-1-30,32.7,26.3,14.9,28.1,14.2,5.6,83,62,44,29.09,28.64,33,14,33,0.00
2014-1-31,19.0,15.6,11.3,11.8,7.9,3.5,80,71,57,29.26,29.06,13,6,13,0.00
2014-2-1,27.7,21.4,16.9,21.1,16.5,11.8,86,81,75,29.20,28.88,13,7,13,0.00
2014-2-2,20.1,8.4,-5.6,13.2,-1.3,-16.8,80,65,50,29.41,29.18,14,6,14,0.00
2014-2-3,31.1,6.5,-13.0,12.5,-7.4,-23.8,73,53,44,29.47,29.35,9,2,9,0.00
2014-2-4,22.6,15.3,3.7,13.2,3.3,-11.2,86,59,49,29.44,29.15,16,7,16,0.00
2014-2-5,27.3,14.7,-3.5,14.8,5.9,-14.6,88,69,53,29.62,29.12,21,10,21,0.00
2014-2-6,19.2,-0.7,-12.3,1.8,-14.4,-22.9,58,52,45,29.62,29.47,14,6,14,0.00
2014-2-7,23.5,5.3,-9.6,5.6,-11.0,-24.9,53,46,44,29.50,29.38,13,5,13,0.00
2014-2-8,24.4,15.9,9.1,13.4,4.2,-7.5,80,60,46,29.38,29.15,15,6,15,0.00
2014-2-9,30.2,11.7,-8.5,13.6,1.8,-19.7,81,65,49,29.44,29.18,14,6,14,0.00
2014-2-10,20.8,-1.5,-15.9,3.1,-15.5,-26.6,57,51,45,29.56,29.41,10,5,10,0.00
2014-2-11,25.5,1.8,-16.6,5.9,-14.5,-31.3,54,45,43,29.59,29.38,12,4,12,0.00
2014-2-12,36.9,15.9,-0.9,15.2,-0.7,-17.2,57,47,41,29.38,29.03,17,7,17,0.00
2014-2-13,40.3,24.1,10.8,26.4,12.0,-1.1,73,60,51,29.03,28.61,24,10,24,0.04
2014-2-14,28.4,13.6,0.7,13.0,3.3,-9.6,75,63,51,29.12,28.73,22,7,22,0.00
2014-2-15,23.7,10.2,-5.3,13.9,-0.3,-15.3,77,62,51,29.15,28.97,17,6,17,0.00
2014-2-16,37.6,22.9,12.2,19.5,12.8,7.3,82,66,47,29.32,28.97,20,6,20,0.05
2014-2-17,36.5,27.3,19.9,30.7,22.0,10.9,91,80,66,29.24,28.79,25,10,25,0.04
2014-2-18,55.6,37.2,20.3,34.1,26.3,17.8,90,67,40,29.03,28.70,25,9,25,0.49
2014-2-19,51.4,36.7,23.9,34.7,26.8,21.1,89,69,48,29.06,28.79,17,6,17,1.42
2014-2-20,48.4,37.4,33.6,47.7,36.1,29.0,98,95,76,28.88,28.17,30,11,30,3.20
2014-2-21,42.8,31.7,23.0,31.2,25.2,19.2,96,78,53,28.97,28.53,30,11,30,0.00
2014-2-22,37.6,27.9,19.0,25.3,19.5,11.2,91,72,55,29.20,28.94,13,4,13,0.00
2014-2-23,36.0,22.1,14.5,16.5,8.8,4.7,70,57,43,29.44,29.18,18,9,18,0.00
2014-2-24,35.2,21.3,11.1,14.2,7.4,1.8,73,55,42,29.47,29.32,15,7,15,0.00
2014-2-25,28.6,14.4,6.3,11.8,1.9,-9.3,75,58,45,29.41,29.29,24,11,24,0.00
2014-2-26,21.2,10.7,-4.5,6.8,-5.1,-19.3,59,48,43,29.41,28.82,22,10,22,0.00
2014-2-27,22.1,9.8,0.7,6.2,-6.9,-17.6,59,46,40,29.24,28.82,29,10,29,0.00
2014-2-28,39.4,21.8,1.0,18.4,4.0,-17.2,56,46,41,29.20,28.94,26,10,26,0.00
2014-3-1,32.4,21.2,9.3,20.4,11.8,2.2,80,67,52,29.47,29.03,17,9,17,0.00
2014-3-2,16.9,6.0,-4.9,5.9,-6.5,-20.9,73,57,45,29.56,29.41,18,9,18,0.00
2014-3-3,30.6,7.3,-10.1,9.5,-9.8,-25.7,46,45,41,29.59,29.38,12,5,12,0.00
2014-3-4,39.6,21.7,8.8,16.6,4.5,-7.8,60,47,39,29.44,29.18,16,6,16,0.00
2014-3-5,29.3,23.0,19.4,19.2,14.3,8.3,81,69,60,29.50,29.26,21,9,21,0.00
2014-3-6,43.0,24.0,8.1,25.2,15.0,4.0,83,70,49,29.44,29.12,11,5,11,0.12
2014-3-7,52.9,35.8,20.5,35.7,26.6,15.5,86,71,44,29.12,28.91,14,7,14,0.00
2014-3-8,35.1,31.5,22.6,32.6,29.7,22.0,98,93,85,29.41,29.09,12,5,12,0.00
2014-3-9,46.8,33.6,17.6,32.6,26.6,16.5,98,77,56,29.41,28.91,20,7,20,0.00
2014-3-10,59.7,46.1,39.0,40.7,34.4,30.6,83,65,46,28.91,28.76,14,6,14,0.00
2014-3-11,57.2,41.5,33.1,44.6,35.8,30.9,98,81,61,28.82,28.64,23,7,23,0.09
2014-3-12,37.4,31.2,21.9,33.7,28.0,18.9,98,88,67,29.20,28.79,15,6,15,0.54
2014-3-13,48.6,35.0,15.3,37.4,27.9,13.4,92,76,61,29.20,28.88,20,7,20,0.12
2014-3-14,62.8,45.0,31.1,40.3,31.6,25.3,81,61,38,29.06,28.70,29,9,29,0.00
2014-3-15,56.7,38.0,26.1,33.7,27.3,22.5,89,68,41,29.29,29.03,21,8,21,0.00
2014-3-16,34.9,26.4,14.4,26.6,16.0,6.0,92,66,43,29.41,29.24,31,14,31,0.00
2014-3-17,44.1,27.1,8.8,22.4,13.8,1.6,82,59,41,29.24,28.79,16,7,16,0.00
2014-3-18,57.6,42.1,30.2,39.4,31.5,19.6,83,67,49,28.85,28.61,28,13,28,0.00
2014-3-19,44.2,38.2,27.7,42.1,33.4,23.9,95,83,70,29.18,28.61,24,11,24,0.04
2014-3-20,59.4,41.4,24.8,38.5,30.3,22.1,90,68,42,29.15,29.00,13,5,13,0.00
2014-3-21,62.8,46.3,33.6,40.8,33.1,26.4,77,61,42,29.09,28.79,29,10,29,0.00
2014-3-22,45.3,34.8,25.3,27.6,21.4,10.1,78,59,40,29.50,29.09,28,12,28,0.00
2014-3-23,42.1,27.0,16.5,18.1,9.9,4.4,67,49,35,29.59,29.47,20,8,20,0.00
2014-3-24,49.3,31.4,19.0,23.9,14.6,6.3,73,51,37,29.50,29.18,12,4,12,0.00
2014-3-25,36.9,24.6,12.0,24.0,11.2,0.4,83,58,40,29.38,29.18,31,11,31,0.00
2014-3-26,49.1,30.3,9.3,23.9,12.4,-2.1,69,48,36,29.38,29.00,30,12,30,0.00
2014-3-27,52.3,42.7,34.9,50.7,38.4,20.4,95,85,45,29.00,28.47,33,16,33,0.42
2014-3-28,43.2,38.4,35.8,40.6,35.5,33.0,98,90,77,29.29,28.56,30,8,30,0.00
2014-3-29,54.7,39.9,29.7,39.4,31.4,23.0,94,74,45,29.38,29.24,17,5,17,0.00
2014-3-30,65.5,46.2,27.5,39.1,31.7,22.8,88,61,35,29.38,29.06,26,11,26,0.00
2014-3-31,68.9,55.3,43.2,44.1,38.2,33.6,76,54,36,29.09,28.70,47,18,47,0.00
2014-4-1,57.9,42.0,29.5,35.0,24.3,16.8,67,50,36,29.20,28.85,30,10,30,0.00
2014-4-2,52.0,42.3,32.7,34.4,29.6,24.1,81,61,50,29.24,29.00,21,8,21,0.04
2014-4-3,48.6,42.8,36.9,47.2,41.5,33.2,98,95,80,29.03,28.64,21,10,21,1.27
2014-4-4,48.0,38.4,34.5,47.5,34.8,29.5,98,87,70,29.20,28.56,32,13,32,0.00
2014-4-5,63.7,43.1,25.5,39.8,30.2,22.7,97,64,37,29.35,29.20,13,4,13,0.00
2014-4-6,64.2,45.6,29.5,38.9,30.2,24.5,83,57,35,29.26,29.00,16,6,16,0.00
2014-4-7,65.1,49.1,38.1,43.8,34.8,26.6,81,61,34,29.03,28.73,18,6,18,0.00
2014-4-8,69.3,49.7,36.0,41.1,33.4,25.4,88,58,29,29.09,28.79,22,8,22,0.00
2014-4-9,70.2,50.7,28.2,39.2,30.6,22.8,83,50,28,29.18,28.91,25,7,25,0.00
2014-4-10,68.4,58.7,48.7,41.8,34.5,27.9,47,41,27,28.97,28.79,23,10,23,0.00
2014-4-11,78.3,62.4,33.8,40.0,30.9,20.5,59,32,22,29.20,29.03,17,6,17,0.00
2014-4-12,85.5,67.8,53.8,56.2,45.1,28.2,66,45,35,29.09,28.70,28,12,28,0.00
2014-4-13,67.5,62.5,55.9,63.9,56.4,49.1,97,81,61,28.85,28.50,35,9,35,0.49
2014-4-14,55.6,36.6,26.1,53.0,35.5,25.3,98,96,90,29.15,28.47,28,12,28,0.00
2014-4-15,50.2,33.6,21.2,32.0,22.9,14.9,98,68,40,29.29,29.15,21,8,21,0.30
2014-4-16,60.3,44.6,27.0,32.1,25.2,15.2,70,48,35,29.29,29.06,34,16,34,0.00
2014-4-17,61.2,48.6,39.0,38.1,31.9,25.8,71,53,41,29.41,29.12,25,7,25,0.00
2014-4-18,72.3,51.1,30.9,41.0,32.6,25.5,84,54,29,29.50,29.35,15,4,15,0.00
2014-4-19,78.1,56.9,35.8,43.2,32.5,21.6,68,42,26,29.44,29.24,21,8,21,0.00
2014-4-20,87.1,66.5,48.2,49.7,40.1,31.7,54,39,26,29.32,29.09,20,8,20,0.00
2014-4-21,77.4,63.9,53.4,60.1,49.1,38.9,86,60,42,29.12,28.97,14,6,14,0.00
2014-4-22,68.5,53.7,40.3,44.1,33.6,22.3,78,50,29,29.18,29.00,27,9,27,0.00
2014-4-23,69.1,48.8,34.9,40.1,31.7,22.8,76,54,29,29.26,29.00,21,7,21,0.03
2014-4-24,65.5,55.5,44.2,43.9,40.1,36.2,76,57,38,29.06,28.67,32,10,32,0.26
2014-4-25,77.9,67.3,59.2,47.3,44.8,30.8,55,46,34,29.00,28.76,22,7,22,0.00
2014-4-26,77.9,75.4,48.2,47.3,45.8,29.9,49,35,34,29.03,28.88,25,8,25,0.00
2014-4-27,80.8,56.2,41.0,60.5,46.5,28.8,98,73,34,29.00,28.70,23,11,23,1.79
2014-4-28,58.8,58.8,58.8,58.3,58.3,58.3,98,98,98,28.73,28.44,28,9,28,0.00
2014-4-29,58.8,58.8,58.8,58.3,58.3,58.3,98,98,98,28.76,28.47,22,6,22,0.00
2014-4-30,58.8,58.8,58.8,58.3,58.3,58.3,98,98,98,28.91,28.73,16,7,16,0.00
2014-5-1,58.8,58.8,58.8,58.3,58.3,58.3,98,98,98,28.91,28.82,18,10,18,0.00
2014-5-2,69.6,58.6,52.2,58.3,55.9,40.6,98,92,44,29.73,28.91,13,11,10,0.01
2014-5-3,71.1,58.4,43.3,58.3,48.3,34.7,98,74,27,29.89,28.91,20,7,20,0.00
2014-5-4,64.8,55.3,44.8,45.1,38.0,22.5,78,54,33,30.02,29.87,12,2,16,0.00
2014-5-5,69.3,55.9,43.2,46.8,34.8,20.8,62,46,32,29.91,29.78,14,2,18,0.00
2014-5-6,77.0,61.1,43.2,51.8,41.7,33.4,74,51,32,29.87,29.63,16,3,16,0.00
2014-5-7,86.2,73.2,65.1,63.7,57.8,51.6,71,60,35,29.74,29.64,19,4,20,0.00
2014-5-8,84.9,72.5,65.8,64.8,62.0,59.7,89,71,44,29.80,29.70,24,4,27,0.14
2014-5-9,70.0,63.2,51.1,62.4,51.7,43.7,93,68,42,29.86,29.64,18,4,18,0.01
2014-5-10,79.0,64.8,49.5,50.5,45.7,41.5,83,54,29,29.91,29.78,12,2,13,0.00
2014-5-11,81.9,68.7,59.2,66.2,59.1,48.6,91,73,54,29.88,29.73,21,3,21,0.29
2014-5-12,86.7,74.8,64.6,69.6,66.3,62.2,95,77,46,29.87,29.69,24,4,24,0.97
2014-5-13,64.9,53.0,46.9,63.9,48.8,41.5,96,86,74,30.16,29.78,14,3,14,0.10
2014-5-14,52.7,48.4,42.6,44.8,41.6,38.3,92,78,59,30.16,29.99,14,2,16,0.00
2014-5-15,58.5,48.9,42.8,46.4,43.4,38.3,95,83,52,30.00,29.93,14,1,15,0.20
2014-5-16,52.2,43.8,38.3,42.4,39.6,35.4,96,86,57,30.06,29.88,16,2,16,0.29
2014-5-17,61.9,49.0,35.2,41.7,34.3,26.2,97,62,29,30.14,30.05,10,1,12,0.00
2014-5-18,70.0,56.1,42.3,44.2,39.3,35.1,80,56,32,30.19,30.09,30,2,30,0.18
2014-5-19,73.2,62.2,48.9,59.7,50.3,41.9,89,66,47,30.12,29.78,22,4,23,0.04
2014-5-20,83.8,73.8,64.2,66.7,62.3,58.3,82,68,52,29.85,29.76,19,3,19,0.00
2014-5-21,89.4,76.6,64.9,67.6,60.2,49.6,91,60,30,29.97,29.76,10,2,12,0.00
2014-5-22,70.9,62.5,53.8,51.3,49.4,45.5,84,63,42,30.16,29.97,12,2,12,0.00
2014-5-23,78.4,64.7,48.4,55.2,47.1,42.6,91,57,30,30.14,30.06,10,1,10,0.00
2014-5-24,77.7,65.1,48.9,56.1,48.2,41.5,81,56,36,30.16,30.03,114,1,114,0.00
2014-5-25,80.8,69.6,55.8,61.3,54.6,45.0,79,60,44,30.07,29.94,51,2,51,0.00
2014-5-26,85.3,71.4,62.8,72.3,64.2,58.3,93,79,46,29.99,29.87,16,2,16,0.33
2014-5-27,84.4,72.7,66.4,71.6,64.7,59.2,91,77,44,29.93,29.84,152,2,152,0.28
2014-5-28,83.8,71.7,62.6,68.7,64.1,59.0,96,79,47,29.96,29.86,13,1,13,0.00
2014-5-29,84.9,71.0,58.1,70.9,62.9,-99.9,94,77,55,30.03,29.95,10,-2,10,0.00
2014-5-30,87.4,73.3,60.6,70.7,59.4,-99.9,85,65,37,30.09,30.01,10,-6,10,0.00
2014-5-31,87.3,74.8,61.2,69.6,61.8,-99.9,82,66,47,30.09,29.95,143,2,143,0.00
2014-6-1,86.5,76.8,68.2,72.5,66.6,58.8,89,72,53,30.00,29.79,17,3,17,0.07
2014-6-2,82.9,75.6,69.1,67.6,64.6,-99.9,94,70,50,29.87,29.73,138,2,138,0.33
2014-6-3,84.7,73.8,63.9,64.6,58.2,49.6,91,61,31,29.97,29.81,10,2,10,0.25
2014-6-4,72.9,65.1,58.5,65.7,61.7,56.3,97,89,76,29.90,29.51,14,2,16,1.29
2014-6-5,76.1,65.3,53.4,59.2,55.1,50.4,98,73,42,29.94,29.85,10,1,10,0.00
2014-6-6,81.0,69.5,55.0,64.0,57.9,50.5,87,68,48,29.95,29.87,8,1,8,0.00
2014-6-7,78.4,67.2,61.3,64.6,61.2,59.2,96,82,56,29.93,29.73,16,2,18,1.05
2014-6-8,72.0,64.7,58.3,62.4,59.6,55.8,97,84,67,29.98,29.82,12,2,12,0.01
2014-6-9,80.6,66.2,51.4,64.4,55.9,46.6,90,71,51,29.98,29.80,15,1,15,0.00
2014-6-10,64.8,62.0,58.3,62.4,59.8,55.8,97,92,84,29.83,29.71,14,2,15,0.33
2014-6-11,72.7,63.8,59.9,64.9,60.8,58.8,97,91,72,29.74,29.66,10,2,12,0.17
2014-6-12,73.8,66.6,58.5,66.0,58.8,48.4,97,77,50,29.88,29.72,14,2,14,0.00
2014-6-13,75.9,63.1,49.6,52.5,46.8,40.3,85,59,31,30.01,29.88,132,2,132,0.00
2014-6-14,77.7,65.8,52.2,54.5,50.2,46.8,87,60,38,30.03,29.83,33,3,33,0.00
2014-6-15,84.0,71.5,60.4,68.5,60.1,52.7,83,68,48,29.93,29.68,47,4,47,0.00
2014-6-16,87.4,76.5,63.0,73.6,68.5,61.2,96,77,59,30.01,29.77,13,2,15,0.00
2014-6-17,87.6,78.8,66.9,74.8,69.8,62.6,89,75,57,29.93,29.78,20,3,23,0.01
2014-6-18,87.3,77.5,70.2,79.3,72.4,67.5,95,85,68,29.91,29.83,16,2,16,0.30
2014-6-19,86.9,76.1,66.0,77.4,71.2,63.9,96,85,68,30.01,29.88,15,2,15,0.33
2014-6-20,86.5,75.9,67.6,72.9,67.3,61.3,98,78,44,29.95,29.89,10,2,12,0.00
2014-6-21,88.0,76.0,66.4,73.4,68.1,64.2,93,78,58,29.92,29.79,12,2,14,0.00
2014-6-22,85.3,71.2,64.9,73.2,66.7,63.0,97,87,63,29.87,29.75,19,1,19,1.08
2014-6-23,78.3,69.9,65.3,70.9,67.3,64.4,98,92,75,29.84,29.77,8,1,10,0.25
2014-6-24,84.0,74.6,66.4,69.1,65.5,61.2,97,76,48,29.90,29.81,12,2,13,0.00
2014-6-25,86.0,75.4,64.2,68.4,63.6,58.1,94,70,42,29.96,29.89,10,1,13,0.00
2014-6-26,85.1,73.6,63.9,72.7,66.7,62.8,97,80,53,30.00,29.88,10,1,13,0.00
2014-6-27,85.6,76.5,68.4,73.6,69.2,66.0,93,79,60,29.94,29.85,14,2,15,0.00
2014-6-28,82.8,75.5,69.4,74.7,70.9,67.1,95,86,74,29.94,29.80,16,3,18,0.00
2014-6-29,83.8,75.1,66.7,75.7,70.6,65.3,96,86,72,29.94,29.76,19,3,20,0.67
2014-6-30,85.5,72.8,65.7,77.7,69.5,64.4,97,90,64,29.85,29.57,24,3,30,2.33
2014-7-1,79.9,71.4,64.0,67.1,64.4,60.6,98,80,57,29.83,29.65,16,3,16,0.07
2014-7-2,66.0,61.9,58.8,61.2,57.3,54.9,94,85,71,30.01,29.81,10,2,12,0.00
2014-7-3,76.5,65.4,55.0,60.8,55.6,50.5,98,74,44,30.16,30.00,8,2,8,0.00
2014-7-4,78.6,67.6,56.1,58.5,53.9,47.8,90,64,38,30.26,30.16,10,1,10,0.00
2014-7-5,71.1,64.7,58.5,64.0,58.8,53.6,96,82,62,30.19,29.98,14,2,14,0.30
2014-7-6,84.9,73.9,62.6,75.6,68.4,61.2,96,84,63,29.98,29.72,17,4,17,0.06
2014-7-7,86.7,78.4,69.8,73.0,68.9,63.1,96,74,47,29.76,29.62,16,2,16,0.00
2014-7-8,80.4,73.5,65.5,68.7,63.4,59.0,90,72,49,29.84,29.60,19,4,22,0.00
2014-7-9,78.6,70.1,60.1,62.1,58.3,50.5,95,69,41,30.02,29.83,12,2,12,0.00
2014-7-10,75.6,63.4,59.0,64.4,58.7,56.5,93,85,64,30.12,30.02,6,1,8,0.00
2014-7-11,82.6,76.3,72.3,69.1,67.2,63.1,85,74,59,30.10,29.95,12,2,13,0.00
2014-7-12,88.0,78.3,71.8,78.6,72.3,66.7,91,82,70,30.02,29.83,19,3,19,0.08
2014-7-13,84.6,73.1,65.7,71.2,67.2,63.0,97,83,55,29.96,29.86,10,2,12,0.21
2014-7-14,78.3,69.1,56.8,68.5,58.5,48.6,97,72,40,29.92,29.81,19,2,19,0.00
2014-7-15,69.3,59.7,51.1,55.4,52.3,48.9,94,78,58,29.98,29.90,15,2,15,0.00
2014-7-16,90.0,63.5,51.6,71.6,53.7,48.6,96,73,43,30.01,29.96,8,1,9,0.00
2014-7-17,78.4,67.1,56.1,61.3,56.7,52.7,90,71,43,30.06,29.98,7,1,9,0.00
2014-7-18,80.1,69.4,57.6,62.2,58.6,55.2,93,71,45,30.10,30.01,10,1,10,0.00
2014-7-19,80.2,69.1,58.8,64.4,60.1,57.0,95,75,50,30.04,29.96,6,1,6,0.00
2014-7-20,80.1,70.4,60.4,66.2,62.4,58.1,92,77,55,30.02,29.94,8,1,10,0.00
2014-7-21,85.5,74.0,63.1,99.9,66.7,60.4,92,78,59,30.03,29.96,13,2,14,0.00
2014-7-22,85.3,76.4,69.3,77.0,71.5,65.5,95,85,75,29.99,29.91,15,3,15,0.00
2014-7-23,79.5,71.6,61.9,73.9,62.2,55.2,95,74,46,30.11,29.96,13,3,14,0.00
2014-7-24,79.3,67.9,55.6,61.9,56.0,51.8,93,68,43,30.13,29.94,10,1,10,0.00
2014-7-25,75.4,64.8,59.4,66.9,60.2,55.4,97,86,67,30.04,29.79,21,2,21,0.51
2014-7-26,80.2,72.8,66.4,75.2,69.0,62.1,96,88,79,29.83,29.74,12,2,12,0.00
2014-7-27,80.4,73.3,62.6,72.5,64.9,57.9,98,77,51,29.91,29.76,17,3,18,0.00
2014-7-28,72.3,64.5,56.7,60.3,55.0,50.4,94,73,48,30.09,29.91,105,3,105,0.00
2014-7-29,79.0,66.3,54.0,61.7,56.9,52.2,97,74,44,30.06,29.98,10,2,12,0.00
2014-7-30,80.8,69.1,57.6,63.5,59.5,55.6,94,74,49,30.03,29.97,10,1,11,0.00
2014-7-31,81.3,69.9,59.0,65.8,61.4,57.6,96,76,50,30.03,29.98,8,1,11,0.00
2014-8-1,81.0,69.7,60.4,66.4,61.8,58.6,95,77,53,30.06,29.99,7,1,11,0.03
2014-8-2,84.7,70.4,56.5,67.6,62.0,55.4,98,77,46,30.12,30.03,6,1,6,0.00
2014-8-3,83.3,72.5,62.1,68.4,63.7,59.7,94,76,49,30.13,30.02,8,1,9,0.00
2014-8-4,85.6,73.2,63.9,70.3,65.7,61.7,95,79,55,30.06,29.95,10,2,12,0.04
2014-8-5,75.0,69.2,64.0,68.9,66.1,63.1,98,90,78,30.02,29.94,8,1,10,0.01
2014-8-6,74.8,68.4,62.8,69.3,65.5,61.7,97,91,78,30.04,29.96,6,1,6,0.00
2014-8-7,71.6,67.9,63.9,67.8,63.6,55.2,95,86,68,29.99,29.92,13,1,13,0.01
2014-8-8,77.5,69.7,62.6,69.6,64.9,60.4,94,85,73,29.98,29.91,14,1,14,0.01
2014-8-9,82.6,72.2,61.3,66.9,63.4,59.5,94,75,52,30.01,29.95,10,1,11,0.00
2014-8-10,79.3,70.5,64.9,70.7,65.4,60.6,95,84,70,30.00,29.90,10,1,10,0.27
2014-8-11,81.3,72.2,62.2,71.1,65.2,57.0,93,79,62,29.92,29.82,15,2,16,0.00
2014-8-12,77.4,66.1,56.8,58.1,55.7,52.3,94,72,45,29.97,29.84,19,3,20,0.00
2014-8-13,82.0,68.2,52.7,62.6,57.0,49.6,91,70,45,30.05,29.97,10,2,11,0.00
2014-8-14,81.0,70.3,60.8,65.8,61.4,55.2,92,75,52,30.04,29.97,10,1,11,0.00
2014-8-15,71.1,64.6,56.8,64.6,58.2,50.2,91,80,67,30.03,29.89,7,1,9,0.00
2014-8-16,73.0,68.7,64.6,69.3,65.5,62.8,96,90,81,29.89,29.82,10,1,13,0.01
2014-8-17,80.4,70.9,65.5,70.5,67.0,64.2,96,88,71,29.91,29.83,8,1,10,0.00
2014-8-18,83.1,72.9,62.4,71.4,67.3,61.5,98,84,62,29.88,29.73,8,1,10,0.00
2014-8-19,86.2,73.9,67.5,71.2,66.9,63.1,96,80,53,29.78,29.68,22,2,24,0.00
2014-8-20,79.0,71.3,63.1,72.5,67.9,61.7,97,89,72,29.93,29.77,12,1,12,0.04
2014-8-21,87.3,77.9,70.2,76.3,72.7,68.9,97,85,66,29.90,29.83,10,2,12,0.04
2014-8-22,87.3,77.8,71.2,77.9,74.5,70.2,98,90,70,29.94,29.80,17,2,17,1.15
2014-8-23,80.8,74.1,69.1,75.4,71.8,68.2,98,93,75,29.98,29.86,27,1,28,1.03
2014-8-24,92.5,79.9,69.6,79.2,73.8,68.0,96,83,59,29.91,29.86,7,1,9,0.00
2014-8-25,93.0,81.9,73.0,79.9,75.4,69.4,98,82,58,29.98,29.89,8,2,10,0.00
2014-8-26,84.7,76.4,69.6,75.0,70.2,66.6,96,82,62,30.06,29.96,17,2,17,0.00
2014-8-27,80.8,73.0,66.0,70.5,67.2,63.7,94,83,65,30.10,30.01,7,1,7,0.00
2014-8-28,79.0,69.5,65.1,73.2,65.6,59.7,97,88,72,30.04,29.92,13,1,14,0.73
2014-8-29,87.3,74.8,67.8,76.5,69.8,66.6,97,86,61,29.93,29.77,18,2,21,0.35
2014-8-30,83.1,73.8,67.5,71.6,68.3,66.2,97,84,61,29.87,29.77,12,2,15,0.08
2014-8-31,87.4,74.7,63.7,73.8,68.9,63.0,99,84,57,29.90,29.76,10,1,10,0.00
2014-9-1,80.1,72.3,64.6,70.3,67.1,63.3,97,85,67,29.84,29.64,16,3,21,0.19
2014-9-2,81.9,72.6,63.0,70.0,65.2,60.8,98,79,54,29.94,29.78,10,1,11,0.00
2014-9-3,84.2,72.0,59.5,70.5,65.4,58.6,98,81,56,29.98,29.85,10,2,15,0.00
2014-9-4,88.0,76.9,65.5,78.1,71.5,64.2,96,84,71,29.95,29.81,16,3,18,1.92
2014-9-5,84.0,72.6,60.3,75.0,67.8,55.4,95,85,66,30.08,29.88,16,3,19,0.01
2014-9-6,73.4,62.6,54.9,58.8,54.6,50.2,95,78,46,30.16,30.06,10,2,12,0.00
2014-9-7,77.7,64.1,52.9,59.5,54.4,50.7,97,74,41,30.17,30.05,6,1,9,0.00
2014-9-8,77.7,66.1,53.1,60.6,56.4,51.3,96,73,49,30.07,29.84,15,2,15,0.00
2014-9-9,72.1,65.7,61.0,67.6,63.2,58.5,97,92,81,29.99,29.73,22,2,22,1.57
2014-9-10,78.1,69.5,57.2,71.8,65.7,53.6,98,88,70,29.88,29.44,24,5,28,2.13
2014-9-11,57.0,52.1,48.7,54.1,47.6,44.8,95,85,74,30.23,29.88,12,3,13,0.00
2014-9-12,54.0,48.0,40.5,47.5,44.6,39.2,95,88,74,30.28,30.20,12,2,14,0.01
2014-9-13,61.7,47.6,36.9,46.4,40.5,36.1,98,79,45,30.33,30.22,10,1,12,0.00
2014-9-14,67.8,54.0,41.4,50.9,45.0,39.9,95,74,45,30.24,30.09,7,1,10,0.00
2014-9-15,63.5,55.1,47.3,59.0,52.1,46.0,97,90,80,30.15,29.99,13,1,17,0.24
2014-9-16,68.4,53.6,41.4,50.7,45.8,40.6,98,78,46,30.18,30.01,8,1,9,0.01
2014-9-17,69.4,56.3,46.2,56.8,51.4,44.2,98,85,59,30.03,29.90,10,1,11,0.00
2014-9-18,74.7,60.3,48.0,58.5,52.1,47.1,98,77,47,30.06,29.96,8,1,9,0.00
2014-9-19,76.1,63.0,51.3,58.6,54.1,49.8,96,75,48,30.06,29.87,10,2,13,0.00
2014-9-20,79.5,69.2,61.3,71.6,64.3,57.2,93,85,68,29.90,29.76,13,3,16,0.13
2014-9-21,70.0,59.6,50.4,66.7,53.1,48.2,93,80,61,30.11,29.79,15,3,20,0.00
2014-9-22,71.8,55.6,43.2,51.1,46.5,42.1,97,75,38,30.26,30.11,6,1,9,0.01
2014-9-23,74.7,59.9,47.5,54.0,48.8,44.6,93,70,38,30.28,30.16,8,1,9,0.00
2014-9-24,76.5,62.9,52.3,55.6,51.5,48.2,89,68,39,30.26,30.15,10,1,10,0.00
2014-9-25,80.1,66.4,58.3,62.2,56.2,49.8,91,71,46,30.21,30.11,8,0,9,0.00
2014-9-26,82.6,68.1,55.2,63.7,57.8,52.3,92,72,43,30.18,30.10,8,1,9,0.00
2014-9-27,83.3,68.5,55.8,64.0,58.0,53.4,93,72,41,30.17,30.06,7,0,9,0.00
2014-9-28,82.9,68.0,55.4,64.4,57.3,53.8,95,72,39,30.10,30.00,4,0,6,0.00
2014-9-29,83.7,69.4,56.1,62.6,57.9,54.1,94,70,42,30.01,29.88,13,1,13,0.00
2014-9-30,68.4,58.4,52.2,58.5,53.0,48.0,94,83,62,29.98,29.88,12,2,13,0.00
2014-10-1,71.6,61.2,50.0,65.1,56.2,47.1,96,84,65,29.90,29.75,10,2,12,0.25
2014-10-2,69.3,64.6,62.4,66.0,63.4,61.3,98,96,88,29.80,29.56,10,1,12,0.61
2014-10-3,63.1,51.4,43.2,62.6,44.5,30.2,98,78,57,29.87,29.53,22,4,24,0.54
2014-10-4,51.1,43.3,36.5,36.5,32.1,27.5,76,65,51,29.82,29.74,17,4,20,0.00
2014-10-5,61.0,48.0,36.5,44.1,38.5,32.5,90,71,47,29.75,29.59,14,2,17,0.00
2014-10-6,62.2,53.1,45.1,46.9,41.8,32.5,92,68,33,29.64,29.53,15,3,21,0.00
2014-10-7,68.7,57.1,49.3,51.1,46.6,42.4,91,70,44,29.87,29.59,14,2,16,0.00
2014-10-8,68.4,54.8,41.7,46.2,40.4,33.4,91,63,29,30.04,29.86,10,1,12,0.01
2014-10-9,64.8,54.0,48.0,51.1,48.0,39.0,97,82,47,30.07,29.98,7,1,7,0.67
2014-10-10,61.2,50.5,41.2,43.2,39.3,36.9,89,67,44,30.12,30.05,12,2,12,0.00
2014-10-11,63.0,47.3,36.7,45.3,38.8,34.9,98,76,37,30.19,30.05,7,1,10,0.00
2014-10-12,56.1,46.8,36.5,53.1,44.4,34.5,98,92,74,30.05,29.78,10,1,12,0.03
2014-10-13,66.4,59.3,53.6,65.7,58.4,53.1,99,97,92,29.79,29.39,14,2,18,1.08
2014-10-14,61.9,57.2,51.3,59.9,55.8,50.4,97,95,90,29.65,29.38,23,3,23,0.38
2014-10-15,54.5,51.9,49.1,50.4,48.7,47.1,97,89,78,29.82,29.65,14,3,15,0.01
2014-10-16,70.2,56.5,48.6,55.2,49.7,46.6,98,80,45,29.83,29.60,12,2,13,0.00
2014-10-17,59.4,53.7,48.6,48.4,46.2,43.7,85,76,65,29.91,29.58,17,3,18,0.00
2014-10-18,52.3,47.8,39.7,45.9,43.7,38.3,95,86,74,30.15,29.90,13,2,13,0.00
2014-10-19,62.1,48.8,37.0,46.6,42.1,36.1,98,80,53,30.14,29.86,14,2,19,0.00
2014-10-20,66.9,54.8,46.0,48.4,45.4,42.3,92,73,46,29.96,29.80,16,2,16,0.00
2014-10-21,60.8,47.7,38.1,45.9,40.4,36.9,96,78,46,30.18,29.96,13,1,14,0.00
2014-10-22,61.3,45.9,34.9,45.5,38.8,33.8,97,79,46,30.27,30.13,10,1,14,0.00
2014-10-23,58.6,50.1,40.3,50.5,43.7,36.7,90,79,65,30.14,29.97,14,2,14,0.02
2014-10-24,67.6,55.5,46.6,55.9,51.3,45.9,98,87,59,30.02,29.87,12,1,12,0.00
2014-10-25,73.2,58.7,48.7,55.2,45.8,37.0,98,68,29,29.98,29.87,12,1,12,0.00
2014-10-26,68.7,55.7,39.7,45.5,36.0,31.6,85,51,27,29.98,29.70,10,2,11,0.00
2014-10-27,75.9,66.8,59.4,61.0,57.0,45.5,92,72,55,29.70,29.52,17,4,19,0.00
2014-10-28,63.3,52.5,42.1,53.4,39.5,34.9,77,62,43,29.98,29.64,21,4,22,0.00
2014-10-29,52.2,42.4,34.0,36.1,34.1,31.5,92,73,50,30.09,29.97,12,2,14,0.00
2014-10-30,48.6,40.3,32.5,43.5,37.3,30.9,95,89,80,30.08,29.96,8,0,9,0.01
2014-10-31,45.5,37.9,27.0,41.7,25.9,19.8,92,63,40,30.35,30.03,26,6,31,0.01
2014-11-1,47.8,33.2,22.1,30.4,23.9,18.1,86,70,42,30.40,30.29,10,1,11,0.00
2014-11-2,49.3,40.2,28.9,32.0,27.2,24.1,85,62,38,30.29,30.05,17,4,20,0.00
2014-11-3,67.5,55.7,42.4,53.8,40.3,26.6,85,57,48,30.05,29.88,22,5,23,0.02
2014-11-4,59.0,48.4,41.0,56.7,43.6,37.8,96,84,71,30.06,29.84,18,4,18,0.08
2014-11-5,62.8,49.1,35.8,46.8,37.1,30.2,96,68,31,30.08,29.83,18,4,18,0.21
2014-11-6,48.7,40.6,28.6,46.4,34.8,24.8,94,80,60,30.20,29.81,24,5,24,0.01
2014-11-7,48.4,37.1,25.3,35.2,29.8,23.4,95,76,56,30.19,29.69,12,2,14,0.00
2014-11-8,48.6,42.7,33.4,40.3,31.8,25.0,83,66,47,29.97,29.68,21,4,22,0.01
2014-11-9,56.7,49.5,36.0,38.1,35.6,30.0,81,59,44,29.86,29.69,20,4,26,0.00
2014-11-10,66.7,54.0,43.3,47.1,41.9,35.8,79,64,45,29.69,29.39,18,4,19,0.00
2014-11-11,51.6,34.3,27.7,44.1,29.6,21.2,94,83,76,30.16,29.52,18,5,21,0.05
2014-11-12,27.7,24.8,22.3,21.7,16.7,13.5,78,71,62,30.29,30.16,14,4,18,0.00
2014-11-13,28.9,24.1,19.6,21.0,18.3,14.2,89,79,63,30.30,30.27,64,3,15,1.25
2014-11-14,26.1,18.9,0.1,16.0,13.5,-5.4,89,79,60,30.34,30.27,7,1,10,0.00
2014-11-15,30.7,23.7,16.0,23.5,17.9,13.3,94,79,54,30.29,30.09,8,1,10,0.00
2014-11-16,29.7,23.4,12.4,26.8,21.0,9.0,95,90,83,30.10,29.90,12,2,12,0.00
2014-11-17,19.8,14.5,11.3,11.7,8.7,5.0,88,78,63,30.03,29.87,21,4,22,0.00
2014-11-18,20.1,14.6,9.3,11.8,7.7,4.6,82,74,61,30.12,29.91,20,4,20,0.00
2014-11-19,28.2,24.3,19.0,21.4,16.4,11.8,81,72,63,30.03,29.70,19,4,26,0.00
2014-11-20,30.4,21.4,12.0,16.7,12.3,7.3,84,69,42,30.27,30.01,16,2,16,0.00
2014-11-21,36.1,25.1,10.6,29.1,11.6,6.6,85,60,31,30.34,30.04,18,3,18,0.00
2014-11-22,55.6,47.6,34.9,50.5,43.4,29.1,92,85,77,30.05,29.72,18,5,19,0.00
2014-11-23,52.2,49.6,46.9,51.1,48.2,45.5,98,95,90,29.72,29.10,102,4,102,0.58
2014-11-24,49.1,30.4,25.5,48.4,28.1,21.4,98,91,84,29.84,29.10,20,6,24,0.10
2014-11-25,28.8,21.8,16.0,22.6,18.2,12.6,94,86,76,30.09,29.84,13,2,14,0.06
2014-11-26,32.2,26.0,19.9,28.6,23.5,18.3,94,90,83,30.17,29.96,13,2,13,0.03
2014-11-27,25.3,18.8,7.9,22.8,15.1,4.5,94,85,70,30.37,30.17,12,2,14,0.00
2014-11-28,36.5,26.7,13.3,32.5,22.5,9.5,91,84,77,30.30,29.71,16,4,20,0.04
2014-11-29,54.0,43.8,34.7,48.9,40.5,32.2,94,88,81,29.72,29.52,16,4,16,0.01
2014-11-30,46.8,33.1,21.6,45.1,30.2,16.2,97,88,79,30.29,29.56,16,4,17,0.00
2014-12-1,21.4,18.0,12.0,16.2,9.2,5.4,84,67,54,30.58,30.29,16,4,17,0.00
2014-12-2,29.3,22.3,11.3,24.1,18.1,7.7,90,84,77,30.42,30.00,12,3,13,0.00
2014-12-3,37.0,27.6,21.9,23.5,19.9,16.5,90,74,46,30.31,30.01,10,2,11,0.00
2014-12-4,32.7,28.8,23.5,30.6,21.9,16.9,93,75,63,30.30,30.11,7,1,7,0.00
2014-12-5,39.4,34.8,32.2,37.6,33.7,30.4,97,96,93,30.18,30.03,7,2,7,0.00
2014-12-6,39.7,31.6,24.6,34.0,29.0,22.6,98,89,70,30.54,30.17,116,3,116,0.00
2014-12-7,37.0,32.6,24.4,30.9,28.5,22.6,93,85,71,30.53,30.15,14,4,14,0.00
2014-12-8,39.9,34.8,30.2,38.7,32.9,26.2,97,93,83,30.16,29.96,22,4,22,0.11
2014-12-9,35.1,31.6,28.6,31.3,28.2,25.5,91,87,83,30.32,30.10,14,3,14,0.00
2014-12-10,31.8,30.2,26.4,28.2,25.7,22.5,87,83,80,30.33,30.21,52,1,52,0.00
2014-12-11,34.2,27.0,22.6,27.3,23.4,20.7,93,86,74,30.25,30.18,7,1,9,0.00
2014-12-12,36.9,32.4,22.1,33.8,30.1,3.7,96,91,26,30.28,30.17,6,2,10,0.00
2014-12-13,49.5,44.9,35.1,45.5,42.6,32.9,97,92,86,30.17,30.01,8,2,9,0.00
2014-12-14,49.6,46.3,42.8,49.1,45.7,41.5,99,98,95,30.02,29.88,42,4,43,0.00
2014-12-15,47.7,46.7,44.1,47.3,46.0,43.0,99,98,95,29.88,29.56,19,4,22,0.30
2014-12-16,44.4,32.7,20.7,43.9,30.7,17.4,98,92,87,30.18,29.57,18,6,20,0.21
2014-12-17,30.0,22.0,18.9,22.6,18.2,16.2,91,85,71,30.25,30.17,12,2,13,0.00
2014-12-18,30.4,23.4,16.5,22.8,19.6,14.7,94,85,71,30.23,30.15,5,0,5,0.00
2014-12-19,34.2,25.4,16.2,25.3,21.2,14.5,96,85,66,30.26,30.16,6,0,6,0.00
2014-12-20,34.2,31.3,28.2,31.1,28.1,24.8,92,88,84,30.19,30.11,10,2,10,0.00
2014-12-21,39.0,35.6,33.3,35.2,33.1,31.1,95,91,84,30.11,29.85,71,3,71,0.01
2014-12-22,44.6,38.4,34.3,44.1,36.9,32.0,98,94,86,29.85,29.40,13,3,13,0.34
2014-12-23,46.4,41.0,32.5,44.4,37.9,30.9,98,89,72,29.70,29.39,19,4,20,0.01
2014-12-24,36.0,35.1,32.5,35.2,33.5,15.4,97,94,88,29.70,29.52,10,2,12,0.00
2014-12-25,48.0,38.9,32.7,36.1,33.2,29.8,91,81,57,29.88,29.69,18,5,18,0.00
2014-12-26,53.6,45.1,37.0,44.4,39.6,34.3,91,81,65,29.94,29.86,16,4,19,0.00
2014-12-27,48.6,37.3,25.7,46.6,33.7,21.7,95,87,81,30.12,29.86,19,5,19,2.24
2014-12-28,36.3,25.7,19.0,24.1,20.2,16.5,93,80,56,30.17,30.09,115,2,115,0.00
2014-12-29,34.0,24.9,17.4,26.6,20.2,13.1,91,82,68,30.44,30.16,12,2,13,0.00
2014-12-30,19.0,13.1,7.7,13.1,4.8,0.3,86,70,46,30.65,30.44,28,4,28,0.00
2014-12-31,21.4,11.7,1.8,7.2,2.3,-2.0,84,67,47,30.58,30.14,20,5,23,0.00
2015-1-1,89.2,22.1,14.7,18.5,13.4,6.4,77,69,56,30.14,29.96,21,6,21,0.00
2015-1-2,37.0,28.3,18.3,29.8,20.5,14.0,92,73,57,30.22,30.00,8,1,10,0.02